Time;durP1;ratioP1;P1;durP2;ratioP2;P2;SDS_P1;SDS_P2;PMS_P1;PMS_P2;Temp;Humidity;BMP_temperature;BMP_pressure;BME280_temperature;BME280_humidity;BME280_pressure;Samples;Min_cycle;Max_cycle;Signal;HPM_P1;HPM_P2
2023/07/02 00:00:52;;;;;;;10.33;2.40;;;15.20;99.90;;;15.81;100.00;97490.97;4955801;28;20989;-85
2023/07/02 00:03:21;;;;;;;3.17;2.10;;;15.20;99.90;;;15.84;100.00;97492.31;4955899;28;21213;-85
2023/07/02 00:05:54;;;;;;;4.70;2.30;;;15.20;99.90;;;15.83;100.00;97494.16;4958484;28;20480;-85
2023/07/02 00:08:24;;;;;;;4.23;1.80;;;15.10;99.90;;;15.80;100.00;97493.81;4956888;28;20496;-85
2023/07/02 00:10:54;;;;;;;4.30;2.50;;;15.10;99.90;;;15.77;100.00;97484.56;4956630;28;20477;-85
2023/07/02 00:13:24;;;;;;;2.83;2.53;;;15.10;99.90;;;15.76;100.00;97485.56;4954981;28;20852;-85
2023/07/02 00:15:53;;;;;;;3.40;2.47;;;15.10;99.90;;;15.74;100.00;97489.50;4956344;28;20484;-85
2023/07/02 00:18:22;;;;;;;6.33;2.20;;;15.10;99.90;;;15.70;100.00;97483.06;4957676;28;20487;-85
2023/07/02 00:20:51;;;;;;;3.07;2.20;;;15.10;99.90;;;15.73;100.00;97490.53;4961500;28;21044;-85
2023/07/02 00:23:21;;;;;;;2.93;1.73;;;15.00;99.90;;;15.70;100.00;97493.63;4957443;28;20480;-87
2023/07/02 00:25:50;;;;;;;7.43;2.17;;;15.00;99.90;;;15.67;100.00;97494.91;4959340;28;20478;-85
2023/07/02 00:28:20;;;;;;;8.20;2.37;;;15.00;99.90;;;15.64;100.00;97491.94;4952650;28;20842;-85
2023/07/02 00:30:49;;;;;;;9.60;2.40;;;15.00;99.90;;;15.58;100.00;97497.06;4960876;28;20452;-85
2023/07/02 00:33:18;;;;;;;6.87;2.37;;;14.90;99.90;;;15.60;100.00;97500.31;4957914;28;20539;-85
2023/07/02 00:35:46;;;;;;;4.20;2.10;;;14.90;99.90;;;15.54;100.00;97495.97;4958249;28;20479;-86
2023/07/02 00:38:15;;;;;;;7.70;2.27;;;14.90;99.90;;;15.50;100.00;97499.28;4963592;28;20480;-85
2023/07/02 00:40:44;;;;;;;5.43;2.30;;;14.80;99.90;;;15.49;100.00;97497.69;4961804;28;21806;-85
2023/07/02 00:43:13;;;;;;;3.70;2.30;;;14.80;99.90;;;15.46;100.00;97491.00;4961714;28;20559;-85
2023/07/02 00:45:43;;;;;;;3.70;2.50;;;14.80;99.90;;;15.41;100.00;97503.28;4956906;28;20465;-85
2023/07/02 00:48:12;;;;;;;2.83;2.30;;;14.80;99.90;;;15.39;100.00;97489.53;4957980;28;20481;-86
2023/07/02 00:50:42;;;;;;;4.73;2.20;;;14.70;99.90;;;15.40;100.00;97499.84;4960020;28;20479;-85
2023/07/02 00:53:10;;;;;;;3.83;2.07;;;14.70;99.90;;;15.36;100.00;97498.69;4958558;28;20501;-84
2023/07/02 00:55:39;;;;;;;4.00;2.40;;;14.70;99.90;;;15.35;100.00;97498.91;4960410;28;20464;-85
2023/07/02 00:58:09;;;;;;;7.70;2.50;;;14.70;99.90;;;15.33;100.00;97495.72;4958834;28;20471;-85
2023/07/02 01:00:39;;;;;;;4.80;2.90;;;14.70;99.90;;;15.31;100.00;97495.94;4961550;28;20958;-85
2023/07/02 01:03:09;;;;;;;3.60;2.33;;;14.70;99.90;;;15.31;100.00;97498.56;4958405;28;20978;-84
2023/07/02 01:05:41;;;;;;;5.43;2.53;;;14.60;99.90;;;15.28;100.00;97493.78;4957568;28;20476;-85
2023/07/02 01:08:11;;;;;;;6.20;3.10;;;14.60;99.90;;;15.25;100.00;97490.78;4958162;28;20468;-86
2023/07/02 01:10:42;;;;;;;5.33;2.70;;;14.60;99.90;;;15.21;100.00;97493.09;4962227;28;20468;-86
2023/07/02 01:13:20;;;;;;;7.37;3.07;;;14.60;99.90;;;15.18;100.00;97490.91;4965838;28;20493;-85
2023/07/02 01:15:49;;;;;;;5.40;2.63;;;14.50;99.90;;;15.11;100.00;97485.78;4961913;28;20472;-85
2023/07/02 01:18:20;;;;;;;4.30;2.33;;;14.50;99.90;;;15.10;100.00;97493.88;4966443;28;20567;-85
2023/07/02 01:20:53;;;;;;;5.37;3.00;;;14.50;99.90;;;15.00;100.00;97499.72;4962002;28;20468;-86
2023/07/02 01:23:22;;;;;;;4.57;2.70;;;14.40;99.90;;;15.00;100.00;97501.56;4969720;28;20881;-85
2023/07/02 01:25:53;;;;;;;10.23;2.70;;;14.40;99.90;;;15.00;100.00;97498.91;4962898;28;21100;-85
2023/07/02 01:28:24;;;;;;;3.60;2.30;;;14.40;99.90;;;15.06;100.00;97513.84;4963609;28;20622;-85
2023/07/02 01:30:52;;;;;;;6.23;2.70;;;14.30;99.90;;;15.00;100.00;97509.44;4960463;28;20511;-85
2023/07/02 01:33:21;;;;;;;14.03;3.00;;;14.30;99.90;;;15.00;100.00;97514.72;4961910;28;21091;-86
2023/07/02 01:35:51;;;;;;;5.97;2.87;;;14.30;99.90;;;15.02;100.00;97502.94;4967364;28;20603;-85
2023/07/02 01:38:21;;;;;;;8.57;3.00;;;14.30;99.90;;;14.99;100.00;97505.25;4962463;28;20461;-85
2023/07/02 01:40:49;;;;;;;5.67;3.10;;;14.30;99.90;;;14.88;100.00;97504.19;4964343;28;20472;-86
2023/07/02 01:43:18;;;;;;;4.97;3.17;;;14.30;99.90;;;14.90;100.00;97504.75;4959758;28;20489;-86
2023/07/02 01:45:47;;;;;;;6.90;3.23;;;14.20;99.90;;;14.86;100.00;97503.59;4961185;28;20518;-85
2023/07/02 01:48:17;;;;;;;5.07;3.20;;;14.20;99.90;;;14.81;100.00;97505.31;4957460;28;20474;-85
2023/07/02 01:50:46;;;;;;;9.17;3.80;;;14.20;99.90;;;14.84;100.00;97510.13;4956553;28;20461;-85
2023/07/02 01:53:17;;;;;;;6.73;3.53;;;14.10;99.90;;;14.81;100.00;97511.41;4955339;28;20502;-86
2023/07/02 01:55:47;;;;;;;8.00;3.70;;;14.10;99.90;;;14.74;100.00;97510.69;4959183;28;20474;-85
2023/07/02 01:58:16;;;;;;;7.53;3.80;;;14.10;99.90;;;14.77;100.00;97520.78;4957739;28;20469;-86
2023/07/02 02:00:44;;;;;;;8.40;3.20;;;14.10;99.90;;;14.79;100.00;97512.63;4958111;28;20469;-86
2023/07/02 02:03:13;;;;;;;5.07;3.40;;;14.00;99.90;;;14.73;100.00;97508.28;4961831;28;20469;-85
2023/07/02 02:05:42;;;;;;;5.67;3.63;;;14.10;99.90;;;14.75;100.00;97522.03;4960162;28;20473;-85
2023/07/02 02:08:11;;;;;;;7.27;3.43;;;14.00;99.90;;;14.65;100.00;97527.06;4961035;28;20518;-86
2023/07/02 02:10:42;;;;;;;7.70;3.90;;;14.00;99.90;;;14.57;100.00;97531.59;4956239;28;20469;-85
2023/07/02 02:13:11;;;;;;;10.03;4.17;;;14.00;99.90;;;14.47;100.00;97533.94;4959875;28;20495;-85
2023/07/02 02:15:40;;;;;;;15.53;4.57;;;13.90;99.90;;;14.44;100.00;97537.03;4956842;28;20473;-85
2023/07/02 02:18:10;;;;;;;13.60;3.90;;;13.90;99.90;;;14.52;100.00;97539.34;4958773;28;20507;-84
2023/07/02 02:20:39;;;;;;;8.37;4.40;;;13.90;99.90;;;14.47;100.00;97535.81;4956504;28;20476;-85
2023/07/02 02:23:08;;;;;;;6.03;4.50;;;13.80;99.90;;;14.40;100.00;97541.16;4960442;28;20468;-86
2023/07/02 02:25:37;;;;;;;6.07;4.17;;;13.80;99.90;;;14.39;100.00;97531.66;4960565;28;20469;-85
2023/07/02 02:28:07;;;;;;;10.30;3.90;;;13.80;99.90;;;14.45;100.00;97540.47;4962957;28;20473;-84
2023/07/02 02:30:36;;;;;;;9.70;4.33;;;13.80;99.90;;;14.35;100.00;97527.88;4961343;28;20465;-86
2023/07/02 02:33:06;;;;;;;6.00;3.83;;;13.80;99.90;;;14.32;100.00;97528.28;4955639;28;20495;-85
2023/07/02 02:35:35;;;;;;;8.43;4.03;;;13.70;99.90;;;14.31;100.00;97531.94;4958862;28;20461;-84
2023/07/02 02:38:05;;;;;;;8.07;3.63;;;13.70;99.90;;;14.35;100.00;97524.44;4961660;28;20473;-86
2023/07/02 02:40:34;;;;;;;6.90;4.53;;;13.70;99.90;;;14.34;100.00;97531.50;4960344;28;20962;-85
2023/07/02 02:43:03;;;;;;;6.50;3.77;;;13.70;99.90;;;14.34;100.00;97531.50;4961910;28;20469;-85
2023/07/02 02:45:33;;;;;;;8.23;4.80;;;13.60;99.90;;;14.38;100.00;97523.97;4962717;28;20488;-85
2023/07/02 02:48:02;;;;;;;9.10;5.07;;;13.60;99.90;;;14.38;100.00;97530.03;4962372;28;20882;-85
2023/07/02 02:50:31;;;;;;;9.60;4.37;;;13.60;99.90;;;14.36;100.00;97531.31;4963729;28;20459;-85
2023/07/02 02:53:02;;;;;;;7.90;4.37;;;13.60;99.90;;;14.29;100.00;97522.66;4962805;28;20531;-85
2023/07/02 02:55:31;;;;;;;8.50;4.77;;;13.60;99.90;;;14.35;100.00;97522.59;4963596;28;21032;-85
2023/07/02 02:58:00;;;;;;;13.20;4.27;;;13.60;99.90;;;14.30;100.00;97527.69;4958557;28;20970;-86
2023/07/02 03:00:30;;;;;;;11.10;5.60;;;13.60;99.90;;;14.25;100.00;97527.56;4958704;28;20501;-85
2023/07/02 03:03:00;;;;;;;11.77;5.00;;;13.60;99.90;;;14.24;100.00;97527.78;4959619;28;20477;-85
2023/07/02 03:05:30;;;;;;;8.07;4.43;;;13.60;99.90;;;14.24;100.00;97525.97;4958107;28;20465;-85
2023/07/02 03:08:00;;;;;;;10.70;5.07;;;13.60;99.90;;;14.27;100.00;97532.59;4971959;28;20504;-85
2023/07/02 03:10:29;;;;;;;8.17;5.10;;;13.60;99.90;;;14.25;100.00;97532.03;4956924;28;20479;-86
2023/07/02 03:12:58;;;;;;;8.07;4.33;;;13.60;99.90;;;14.28;100.00;97521.84;4971038;28;20971;-86
2023/07/02 03:15:27;;;;;;;9.17;5.17;;;13.60;99.90;;;14.30;100.00;97521.66;4961978;28;20503;-84
2023/07/02 03:17:57;;;;;;;8.57;4.67;;;13.60;99.90;;;14.31;100.00;97524.03;4960121;28;20461;-85
2023/07/02 03:20:28;;;;;;;12.80;4.87;;;13.60;99.90;;;14.24;100.00;97525.97;4958681;28;20889;-84
2023/07/02 03:22:57;;;;;;;8.20;4.50;;;13.60;99.90;;;14.27;100.00;97528.13;4954848;28;20458;-84
2023/07/02 03:25:27;;;;;;;13.73;5.40;;;13.60;99.90;;;14.33;100.00;97526.47;4956034;28;20477;-84
2023/07/02 03:27:57;;;;;;;11.37;6.10;;;13.70;99.90;;;14.34;100.00;97528.88;4956533;28;20477;-84
2023/07/02 03:30:26;;;;;;;11.80;5.37;;;13.70;99.90;;;14.31;100.00;97536.38;4958925;28;20493;-88
2023/07/02 03:32:56;;;;;;;15.07;6.70;;;13.70;99.90;;;14.25;100.00;97535.47;4961238;28;20473;-85
2023/07/02 03:35:28;;;;;;;10.53;5.33;;;13.70;99.90;;;14.32;100.00;97536.19;4956474;28;20495;-85
2023/07/02 03:37:57;;;;;;;15.07;5.80;;;13.60;99.90;;;14.30;100.00;97532.94;4957752;28;20484;-86
2023/07/02 03:40:26;;;;;;;14.33;5.77;;;13.70;99.90;;;14.28;100.00;97537.63;4956718;28;20469;-85
2023/07/02 03:42:54;;;;;;;9.47;5.00;;;13.60;99.90;;;14.23;100.00;97541.97;4958270;28;20477;-85
2023/07/02 03:45:23;;;;;;;10.40;5.30;;;13.60;99.90;;;14.22;100.00;97543.78;4958711;28;20473;-85
2023/07/02 03:47:52;;;;;;;17.70;5.00;;;13.60;99.90;;;14.27;100.00;97545.75;4962409;28;20658;-85
2023/07/02 03:50:21;;;;;;;10.00;5.20;;;13.60;99.90;;;14.23;100.00;97541.97;4959067;28;20504;-86
2023/07/02 03:52:52;;;;;;;10.83;4.93;;;13.60;99.90;;;14.30;100.00;97545.31;4961379;28;21311;-85
2023/07/02 03:55:21;;;;;;;10.60;5.17;;;13.60;99.90;;;14.25;100.00;97538.09;4959681;28;20869;-86
2023/07/02 03:57:51;;;;;;;10.50;5.60;;;13.60;99.90;;;14.22;100.00;97556.94;4964255;28;20495;-86
2023/07/02 04:00:21;;;;;;;15.87;5.33;;;13.60;99.90;;;14.20;100.00;97560.81;4961513;28;20484;-85
2023/07/02 04:02:52;;;;;;;9.90;5.53;;;13.60;99.90;;;14.21;100.00;97560.59;4962837;28;20473;-85
2023/07/02 04:05:22;;;;;;;14.40;6.00;;;13.60;99.90;;;14.23;100.00;97566.41;4956533;28;21166;-86
2023/07/02 04:07:54;;;;;;;11.70;6.37;;;13.60;99.90;;;14.27;100.00;97564.97;4966975;28;20499;-85
2023/07/02 04:10:26;;;;;;;18.20;6.23;;;13.60;99.90;;;14.27;100.00;97567.59;4968007;28;20468;-86
2023/07/02 04:12:55;;;;;;;17.63;6.40;;;13.60;99.90;;;14.33;100.00;97571.97;4964628;28;20496;-86
2023/07/02 04:15:26;;;;;;;9.57;5.63;;;13.60;99.90;;;14.36;100.00;97573.38;4961728;28;20481;-86
2023/07/02 04:17:56;;;;;;;11.37;6.90;;;13.60;99.90;;;14.36;100.00;97571.56;4963818;28;20566;-85
2023/07/02 04:20:25;;;;;;;14.83;6.93;;;13.70;99.90;;;14.36;100.00;97576.81;4960061;28;21631;-85
2023/07/02 04:22:56;;;;;;;15.43;6.00;;;13.70;99.90;;;14.36;100.00;97576.81;4959312;28;20476;-85
2023/07/02 04:25:27;;;;;;;13.20;6.77;;;13.70;99.90;;;14.42;100.00;97586.44;4959970;28;20498;-84
2023/07/02 04:28:16;;;;;;;10.63;6.00;;;13.70;99.90;;;14.47;100.00;97593.69;4962070;28;20504;-86
2023/07/02 04:30:46;;;;;;;17.77;7.03;;;13.80;99.90;;;14.46;100.00;97577.09;4956767;28;20467;-84
2023/07/02 04:33:17;;;;;;;15.27;6.30;;;13.80;99.90;;;14.48;100.00;97582.91;4958449;28;20522;-85
2023/07/02 04:35:46;;;;;;;18.57;6.90;;;13.90;99.90;;;14.54;100.00;97587.28;4958221;28;20504;-85
2023/07/02 04:38:18;;;;;;;13.53;5.80;;;13.80;99.90;;;14.58;100.00;97591.09;4959383;28;20473;-86
2023/07/02 04:40:47;;;;;;;15.53;7.70;;;13.80;99.90;;;14.56;100.00;97587.88;4959407;28;20533;-86
2023/07/02 04:43:18;;;;;;;14.70;8.47;;;13.90;99.90;;;14.57;100.00;97589.50;4965824;28;20506;-84
2023/07/02 04:45:49;;;;;;;16.47;7.03;;;13.90;99.90;;;14.59;100.00;97595.31;4963374;28;21059;-86
2023/07/02 04:48:21;;;;;;;15.60;6.50;;;13.90;99.90;;;14.62;100.00;97596.69;4957486;28;20499;-86
2023/07/02 04:50:52;;;;;;;14.83;6.60;;;13.90;99.90;;;14.61;100.00;97597.75;4965423;28;20483;-85
2023/07/02 04:53:22;;;;;;;21.30;6.83;;;14.00;99.90;;;14.59;100.00;97600.59;4959971;28;20845;-87
2023/07/02 04:55:56;;;;;;;15.53;6.63;;;14.00;99.90;;;14.61;100.00;97605.66;4962287;28;20864;-86
2023/07/02 04:58:29;;;;;;;20.80;8.33;;;14.00;99.90;;;14.65;100.00;97608.63;4965273;28;20487;-85
2023/07/02 05:01:00;;;;;;;15.43;7.80;;;14.00;99.90;;;14.69;100.00;97604.50;4965208;28;20535;-86
2023/07/02 05:03:29;;;;;;;20.93;7.63;;;14.00;99.90;;;14.74;100.00;97609.91;4965924;28;20471;-85
2023/07/02 05:05:59;;;;;;;18.70;7.20;;;14.00;99.90;;;14.76;100.00;97615.75;4960472;28;20491;-85
2023/07/02 05:08:32;;;;;;;29.23;7.97;;;14.10;99.90;;;14.81;100.00;97615.88;4963077;28;20468;-85
2023/07/02 05:11:02;;;;;;;17.13;7.33;;;14.10;99.90;;;14.86;100.00;97621.28;4965257;28;20468;-85
2023/07/02 05:13:32;;;;;;;19.03;8.23;;;14.10;99.90;;;14.87;100.00;97621.06;4963366;28;20480;-85
2023/07/02 05:16:03;;;;;;;14.00;8.13;;;14.20;99.90;;;14.91;100.00;97624.84;4964393;28;20507;-85
2023/07/02 05:18:34;;;;;;;18.13;9.40;;;14.20;99.90;;;14.96;100.00;97629.44;4961021;28;20500;-85
2023/07/02 05:21:06;;;;;;;27.40;7.63;;;14.20;99.90;;;14.99;100.00;97619.25;4963545;28;20480;-85
2023/07/02 05:23:41;;;;;;;24.80;9.13;;;14.30;99.90;;;15.04;100.00;97624.66;4957944;28;20473;-85
2023/07/02 05:26:10;;;;;;;27.00;15.20;;;14.30;99.90;;;15.08;100.00;97625.00;4967563;28;20470;-91
2023/07/02 05:28:39;;;;;;;18.90;8.70;;;14.40;99.90;;;15.11;100.00;97627.19;4958372;28;20484;-85
2023/07/02 05:31:08;;;;;;;22.50;9.27;;;14.40;99.90;;;15.15;100.00;97628.34;4960249;28;20849;-85
2023/07/02 05:33:39;;;;;;;17.17;8.50;;;14.40;99.90;;;15.21;100.00;97626.63;4959968;28;20472;-85
2023/07/02 05:36:08;;;;;;;21.33;9.43;;;14.50;99.90;;;15.23;100.00;97630.66;4959572;28;20990;-90
2023/07/02 05:38:39;;;;;;;29.77;14.23;;;14.50;99.90;;;15.29;100.00;97628.94;4973403;28;20987;-85
2023/07/02 05:41:07;;;;;;;24.23;10.07;;;14.50;99.90;;;15.32;100.00;97624.00;4963240;28;20473;-85
2023/07/02 05:43:36;;;;;;;14.67;8.13;;;14.60;99.90;;;15.38;100.00;97623.09;4957738;28;20461;-85
2023/07/02 05:46:05;;;;;;;17.77;9.27;;;14.60;99.90;;;15.38;100.00;97631.00;4958122;28;20465;-85
2023/07/02 05:48:34;;;;;;;16.13;8.37;;;14.70;99.90;;;15.43;100.00;97640.88;4960646;28;20464;-84
2023/07/02 05:51:03;;;;;;;19.03;9.40;;;14.70;99.90;;;15.42;100.00;97629.53;4958672;28;20473;-84
2023/07/02 05:53:32;;;;;;;16.83;8.20;;;14.80;99.90;;;15.46;100.00;97635.13;4961057;28;20499;-84
2023/07/02 05:56:03;;;;;;;19.53;9.37;;;14.70;99.90;;;15.47;100.00;97634.13;4960245;28;21614;-85
2023/07/02 05:58:31;;;;;;;20.73;8.73;;;14.80;99.90;;;15.50;100.00;97631.06;4959406;28;20499;-86
2023/07/02 06:01:15;;;;;;;42.13;19.70;;;14.90;99.90;;;15.51;100.00;97630.84;4960068;28;20469;-84
2023/07/02 06:03:45;;;;;;;24.70;10.33;;;14.90;99.90;;;15.53;100.00;97630.59;4958990;28;20533;-85
2023/07/02 06:06:14;;;;;;;23.80;9.83;;;14.90;99.90;;;15.52;100.00;97632.41;4961568;28;21012;-84
2023/07/02 06:08:42;;;;;;;26.17;9.20;;;15.00;99.90;;;15.57;100.00;97629.13;4963537;28;20475;-84
2023/07/02 06:11:13;;;;;;;19.47;9.30;;;15.00;99.90;;;15.62;100.00;97633.72;4960183;28;20986;-84
2023/07/02 06:13:42;;;;;;;23.43;9.30;;;15.00;99.90;;;15.65;100.00;97633.25;4956940;28;20494;-84
2023/07/02 06:16:12;;;;;;;20.23;9.97;;;15.00;99.90;;;15.71;100.00;97645.50;4960932;28;20508;-84
2023/07/02 06:18:42;;;;;;;19.53;9.90;;;15.10;99.90;;;15.77;100.00;97641.94;4959227;28;20477;-83
2023/07/02 06:21:10;;;;;;;19.03;9.40;;;15.10;99.90;;;15.81;100.00;97643.09;4962628;28;20514;-84
2023/07/02 06:23:43;;;;;;;20.33;9.63;;;15.20;99.90;;;15.88;100.00;97646.41;4957982;28;20979;-84
2023/07/02 06:26:13;;;;;;;24.10;10.63;;;15.20;99.90;;;15.93;100.00;97651.81;4959327;28;21263;-84
2023/07/02 06:28:42;;;;;;;25.00;9.50;;;15.20;99.90;;;16.03;100.00;97658.13;4959631;28;20475;-83
2023/07/02 06:31:12;;;;;;;23.40;10.87;;;15.30;99.90;;;16.09;100.00;97659.00;4957108;28;20889;-83
2023/07/02 06:33:42;;;;;;;21.90;11.27;;;15.40;99.90;;;16.16;100.00;97657.06;4962483;28;20473;-83
2023/07/02 06:36:10;;;;;;;24.77;9.93;;;15.40;99.90;;;16.22;100.00;97663.22;4958920;28;20512;-83
2023/07/02 06:38:41;;;;;;;25.70;10.23;;;15.50;99.90;;;16.26;100.00;97661.72;4962629;28;20475;-83
2023/07/02 06:41:10;;;;;;;23.70;9.77;;;15.60;99.90;;;16.30;100.00;97658.41;4963460;28;20461;-83
2023/07/02 06:43:43;;;;;;;27.70;10.60;;;15.70;99.90;;;16.39;100.00;97662.28;4962151;28;20466;-83
2023/07/02 06:46:13;;;;;;;20.67;11.00;;;15.70;99.90;;;16.43;100.00;97658.13;4960977;28;20473;-83
2023/07/02 06:48:41;;;;;;;25.67;10.20;;;15.80;99.90;;;16.48;100.00;97660.91;4960859;28;21142;-83
2023/07/02 06:51:14;;;;;;;29.67;11.97;;;15.80;99.90;;;16.53;100.00;97660.97;4961822;28;20464;-83
2023/07/02 06:53:43;;;;;;;31.67;11.90;;;15.80;99.90;;;16.59;100.00;97662.72;4961905;28;20466;-85
2023/07/02 06:56:12;;;;;;;29.93;12.37;;;15.90;99.90;;;16.66;100.00;97664.44;4962873;28;20877;-84
2023/07/02 06:58:44;;;;;;;30.50;11.40;;;16.00;99.90;;;16.68;100.00;97670.28;4968992;28;20488;-84
2023/07/02 07:01:13;;;;;;;24.10;10.90;;;15.90;99.90;;;16.73;100.00;97665.09;4962212;28;20475;-84
2023/07/02 07:03:41;;;;;;;21.00;9.93;;;16.10;99.90;;;16.77;100.00;97671.47;4965687;28;21381;-84
2023/07/02 07:06:10;;;;;;;23.20;11.30;;;16.10;99.90;;;16.86;100.00;97667.44;4964097;28;20989;-84
2023/07/02 07:08:39;;;;;;;32.33;12.07;;;16.10;99.90;;;16.92;100.00;97672.59;4966392;28;20476;-84
2023/07/02 07:11:09;;;;;;;29.53;11.63;;;16.20;99.90;;;16.99;100.00;97664.50;4962169;28;20475;-83
2023/07/02 07:13:38;;;;;;;23.13;11.37;;;16.30;99.90;;;17.02;100.00;97670.13;4959099;28;20481;-84
2023/07/02 07:16:09;;;;;;;21.40;10.07;;;16.40;99.90;;;17.05;100.00;97674.13;4961206;28;20520;-84
2023/07/02 07:18:39;;;;;;;21.57;10.57;;;16.40;99.90;;;17.08;100.00;97665.72;4961170;28;20489;-85
2023/07/02 07:21:07;;;;;;;24.10;11.50;;;16.50;99.90;;;17.08;100.00;97671.00;4960213;28;20639;-85
2023/07/02 07:23:36;;;;;;;22.60;10.87;;;16.40;99.90;;;17.11;100.00;97676.63;4962690;28;20474;-84
2023/07/02 07:26:05;;;;;;;30.50;12.93;;;16.40;99.90;;;17.16;100.00;97667.19;4961954;28;20477;-85
2023/07/02 07:28:34;;;;;;;29.40;12.50;;;16.50;99.90;;;17.21;100.00;97673.38;4960980;28;20464;-84
2023/07/02 07:31:03;;;;;;;33.53;12.77;;;16.60;99.90;;;17.26;100.00;97676.09;4959465;28;20461;-84
2023/07/02 07:33:33;;;;;;;23.43;11.90;;;16.60;99.90;;;17.33;100.00;97671.44;4958318;28;20469;-85
2023/07/02 07:36:05;;;;;;;31.07;13.30;;;16.70;99.90;;;17.35;100.00;97672.03;4961022;28;21263;-84
2023/07/02 07:38:34;;;;;;;28.87;12.90;;;16.70;99.90;;;17.36;100.00;97672.81;4962961;28;20472;-84
2023/07/02 07:41:02;;;;;;;27.53;11.80;;;16.80;99.90;;;17.39;100.00;97672.34;4963635;28;20461;-84
2023/07/02 07:43:31;;;;;;;29.90;12.83;;;16.90;99.90;;;17.43;100.00;97678.75;4962497;28;20479;-84
2023/07/02 07:46:01;;;;;;;24.97;11.17;;;16.90;99.90;;;17.45;100.00;97671.41;4963831;28;20476;-84
2023/07/02 07:48:30;;;;;;;23.63;13.30;;;16.90;99.90;;;17.50;100.00;97666.97;4961332;28;20472;-84
2023/07/02 07:51:00;;;;;;;29.80;12.70;;;17.00;99.90;;;17.52;100.00;97683.41;4961486;28;20563;-85
2023/07/02 07:53:29;;;;;;;28.77;11.70;;;17.00;99.90;;;17.53;100.00;97677.06;4966145;28;20472;-85
2023/07/02 07:55:58;;;;;;;26.53;12.03;;;17.00;99.90;;;17.58;100.00;97669.25;4961035;28;20504;-84
2023/07/02 07:58:27;;;;;;;27.53;12.27;;;17.00;99.90;;;17.65;100.00;97670.94;4961709;28;20492;-84
2023/07/02 08:00:56;;;;;;;25.53;12.50;;;17.10;99.90;;;17.72;100.00;97672.38;4963730;28;20881;-84
2023/07/02 08:03:24;;;;;;;30.87;11.70;;;17.20;99.90;;;17.79;100.00;97670.38;4959940;28;20456;-84
2023/07/02 08:05:53;;;;;;;25.83;13.63;;;17.20;99.90;;;17.80;100.00;97679.13;4962199;28;20942;-84
2023/07/02 08:08:24;;;;;;;25.13;11.30;;;17.30;99.90;;;17.84;100.00;97680.22;4963614;28;20464;-84
2023/07/02 08:10:52;;;;;;;26.60;13.37;;;17.30;99.90;;;17.88;100.00;97679.50;4959970;28;20484;-84
2023/07/02 08:13:21;;;;;;;30.50;13.03;;;17.40;99.90;;;17.95;100.00;97674.84;4961264;28;20537;-85
2023/07/02 08:15:50;;;;;;;30.67;13.07;;;17.40;99.90;;;18.05;100.00;97677.63;4959939;28;20485;-84
2023/07/02 08:18:19;;;;;;;26.07;12.40;;;17.50;99.90;;;18.10;100.00;97679.53;4959540;28;20518;-84
2023/07/02 08:20:47;;;;;;;27.07;12.40;;;17.50;99.90;;;18.12;100.00;97685.38;4958377;28;20476;-84
2023/07/02 08:23:16;;;;;;;24.93;12.00;;;17.60;99.90;;;18.13;100.00;97683.53;4960864;28;20555;-84
2023/07/02 08:25:47;;;;;;;25.53;11.90;;;17.70;99.80;;;18.20;100.00;97684.16;4958662;28;20963;-84
2023/07/02 08:28:16;;;;;;;25.07;12.50;;;17.70;99.90;;;18.20;100.00;97684.97;4958256;28;20572;-85
2023/07/02 08:30:45;;;;;;;34.63;13.93;;;17.70;99.90;;;18.23;100.00;97687.13;4957171;28;20468;-84
2023/07/02 08:33:14;;;;;;;33.63;14.33;;;17.70;99.90;;;18.22;100.00;97696.13;4959085;28;20473;-84
2023/07/02 08:35:43;;;;;;;34.37;14.07;;;17.60;99.90;;;18.26;100.00;97699.88;4959531;28;21048;-84
2023/07/02 08:38:11;;;;;;;27.57;12.10;;;17.60;99.90;;;18.24;100.00;97707.28;4956387;28;20621;-84
2023/07/02 08:40:40;;;;;;;32.20;13.40;;;17.60;99.90;;;18.24;100.00;97706.47;4956270;28;20550;-84
2023/07/02 08:43:10;;;;;;;24.90;11.77;;;17.70;99.90;;;18.27;100.00;97711.25;4956909;28;20481;-84
2023/07/02 08:45:41;;;;;;;28.40;12.47;;;17.60;99.90;;;18.33;100.00;97716.38;4959753;28;20471;-84
2023/07/02 08:48:11;;;;;;;31.07;12.77;;;17.80;99.90;;;18.35;100.00;97714.31;4958984;28;20469;-84
2023/07/02 08:50:40;;;;;;;24.13;12.10;;;17.90;99.90;;;18.45;100.00;97713.63;4961382;28;20461;-84
2023/07/02 08:53:09;;;;;;;26.97;12.80;;;17.90;99.90;;;18.48;100.00;97707.84;4959928;28;20453;-85
2023/07/02 08:55:37;;;;;;;28.57;12.60;;;18.00;99.90;;;18.56;100.00;97708.25;4958600;28;21009;-85
2023/07/02 08:58:06;;;;;;;37.67;13.30;;;18.00;99.90;;;18.60;100.00;97706.69;4960039;28;20532;-85
2023/07/02 09:00:36;;;;;;;26.80;13.50;;;18.10;99.90;;;18.63;100.00;97705.44;4961460;28;20485;-85
2023/07/02 09:03:16;;;;;;;30.57;13.07;;;18.10;99.90;;;18.68;100.00;97710.78;4963411;28;20559;-89
2023/07/02 09:05:52;;;;;;;30.10;12.30;;;18.10;99.80;;;18.72;100.00;97721.69;4964190;28;20595;-85
2023/07/02 09:08:26;;;;;;;28.07;12.73;;;18.10;99.80;;;18.69;100.00;97714.22;4959017;28;20898;-85
2023/07/02 09:10:55;;;;;;;90.40;48.37;;;18.20;99.10;;;18.72;100.00;97708.44;4961013;28;20525;-85
2023/07/02 09:13:24;;;;;;;30.10;12.70;;;18.10;99.30;;;18.73;100.00;97721.44;4959625;28;20488;-85
2023/07/02 09:15:55;;;;;;;25.43;11.80;;;18.10;99.20;;;18.77;100.00;97716.44;4959286;28;20511;-86
2023/07/02 09:18:25;;;;;;;26.77;11.30;;;18.20;99.10;;;18.80;98.71;97714.09;4967199;28;20500;-85
2023/07/02 09:20:55;;;;;;;26.03;12.37;;;18.30;98.70;;;18.82;98.03;97725.25;4957164;28;20469;-86
2023/07/02 09:23:35;;;;;;;22.97;12.23;;;18.30;98.60;;;18.81;95.96;97728.16;4959309;28;20487;-85
2023/07/02 09:26:04;;;;;;;28.90;12.27;;;18.40;98.10;;;18.85;96.32;97723.94;4963398;28;20477;-86
2023/07/02 09:28:33;;;;;;;26.27;12.00;;;18.40;98.20;;;18.87;96.46;97733.28;4962389;28;20461;-85
2023/07/02 09:31:02;;;;;;;27.10;11.87;;;18.30;98.30;;;18.88;94.03;97726.91;4958985;28;20496;-85
2023/07/02 09:33:31;;;;;;;35.10;13.67;;;18.30;97.50;;;18.93;94.54;97723.53;4964203;28;20955;-86
2023/07/02 09:36:00;;;;;;;20.80;11.23;;;18.30;98.10;;;18.97;97.46;97725.44;4962439;28;20558;-86
2023/07/02 09:38:29;;;;;;;23.10;12.40;;;18.40;98.50;;;18.94;96.03;97733.06;4963695;28;20873;-86
2023/07/02 09:41:00;;;;;;;29.03;11.90;;;18.40;98.30;;;18.92;95.49;97743.09;4966217;28;21047;-86
2023/07/02 09:43:31;;;;;;;35.67;12.67;;;18.40;98.20;;;18.89;96.94;97738.31;4960501;28;20465;-85
2023/07/02 09:46:02;;;;;;;32.70;13.03;;;18.30;98.60;;;18.86;96.79;97733.50;4961190;28;20474;-85
2023/07/02 09:48:36;;;;;;;29.30;13.23;;;18.30;98.50;;;18.90;97.42;97737.25;4961365;28;20469;-85
2023/07/02 09:51:06;;;;;;;24.60;13.03;;;18.40;98.60;;;18.85;97.73;97735.34;4963035;28;20473;-86
2023/07/02 09:53:34;;;;;;;24.60;13.27;;;18.30;98.60;;;18.89;98.03;97739.13;4961845;28;20473;-85
2023/07/02 09:56:05;;;;;;;40.70;14.73;;;18.30;98.80;;;18.95;98.23;97734.69;4963341;28;20460;-86
2023/07/02 09:58:34;;;;;;;29.97;13.03;;;18.30;98.80;;;18.99;97.86;97738.41;4958144;28;21137;-86
2023/07/02 10:01:04;;;;;;;26.17;11.60;;;18.30;98.70;;;19.03;97.66;97736.88;4962060;28;20492;-86
2023/07/02 10:03:33;;;;;;;25.90;11.87;;;18.40;98.70;;;19.06;94.93;97733.72;4964421;28;20473;-86
2023/07/02 10:06:06;;;;;;;28.00;12.37;;;18.40;98.10;;;19.09;93.31;97730.56;4958579;28;20455;-86
2023/07/02 10:08:37;;;;;;;25.60;12.23;;;18.50;97.80;;;19.07;91.42;97738.78;4961035;28;20950;-86
2023/07/02 10:11:13;;;;;;;22.73;11.70;;;18.50;97.20;;;19.10;91.95;97740.94;4957932;28;20477;-85
2023/07/02 10:13:42;;;;;;;27.63;13.30;;;18.60;97.50;;;19.16;92.78;97735.72;4959121;28;20980;-86
2023/07/02 10:16:12;;;;;;;21.70;11.40;;;18.60;97.70;;;19.20;92.63;97742.91;4959523;28;21091;-85